Time;durP1;ratioP1;P1;durP2;ratioP2;P2;SDS_P1;SDS_P2;PMS_P1;PMS_P2;Temp;Humidity;BMP_temperature;BMP_pressure;BME280_temperature;BME280_humidity;BME280_pressure;Samples;Min_cycle;Max_cycle;Signal;HPM_P1;HPM_P2
2022/03/04 00:01:48;;;;;;;16.27;10.88;;;23.10;32.80;;;;;;6117154;28;82664;-75
2022/03/04 00:04:49;;;;;;;15.77;11.68;;;23.10;32.70;;;;;;6140765;28;83631;-75
2022/03/04 00:07:49;;;;;;;16.80;11.57;;;23.10;32.80;;;;;;6129480;28;83062;-75
2022/03/04 00:10:50;;;;;;;19.77;12.30;;;23.10;32.70;;;;;;6130113;28;82987;-74
2022/03/04 00:13:51;;;;;;;20.33;12.23;;;23.10;32.80;;;;;;6147252;28;83964;-74
2022/03/04 00:16:51;;;;;;;17.63;11.20;;;23.10;32.90;;;;;;6129157;28;85680;-75
2022/03/04 00:19:52;;;;;;;18.55;11.98;;;23.10;32.80;;;;;;6132266;28;83212;-75
2022/03/04 00:22:52;;;;;;;17.98;11.88;;;23.10;32.70;;;;;;6132087;28;83259;-75
2022/03/04 00:25:53;;;;;;;18.15;12.07;;;23.10;32.80;;;;;;6131495;28;84695;-74
2022/03/04 00:28:53;;;;;;;18.20;11.75;;;23.10;32.70;;;;;;6140397;28;83981;-74
2022/03/04 00:31:54;;;;;;;15.90;11.02;;;23.10;32.80;;;;;;6130524;28;83098;-74
2022/03/04 00:34:54;;;;;;;17.17;11.52;;;23.10;32.70;;;;;;6138616;28;83708;-76
2022/03/04 00:37:55;;;;;;;19.27;11.40;;;23.10;32.70;;;;;;6132332;28;83135;-76
2022/03/04 00:40:55;;;;;;;17.08;10.73;;;23.10;32.70;;;;;;6131721;28;83199;-74
2022/03/04 00:43:56;;;;;;;18.83;11.65;;;23.10;32.70;;;;;;6129544;28;83521;-73
2022/03/04 00:46:56;;;;;;;16.60;10.95;;;23.10;32.70;;;;;;6131844;28;86018;-73
2022/03/04 00:49:58;;;;;;;18.35;11.48;;;23.10;32.70;;;;;;6139553;28;84066;-73
2022/03/04 00:53:01;;;;;;;18.88;11.13;;;23.10;32.60;;;;;;6132219;28;83903;-72
2022/03/04 00:56:01;;;;;;;17.30;10.98;;;23.10;32.70;;;;;;6130139;28;84456;-73
2022/03/04 00:59:02;;;;;;;19.38;11.93;;;23.10;32.70;;;;;;6129774;28;83069;-72
2022/03/04 01:02:03;;;;;;;18.80;11.13;;;23.10;32.70;;;;;;6135999;28;86785;-72
2022/03/04 01:05:03;;;;;;;19.45;11.35;;;23.00;32.70;;;;;;6145134;28;83578;-73
2022/03/04 01:08:04;;;;;;;16.50;10.80;;;23.00;32.80;;;;;;6143474;28;83424;-73
2022/03/04 01:11:04;;;;;;;17.95;11.32;;;23.00;32.70;;;;;;6135607;28;84144;-73
2022/03/04 01:14:05;;;;;;;15.52;10.38;;;23.00;32.70;;;;;;6131482;28;84002;-73
2022/03/04 01:17:06;;;;;;;17.92;10.75;;;23.00;32.80;;;;;;6139321;28;83017;-73
2022/03/04 01:20:06;;;;;;;13.13;9.43;;;23.00;32.80;;;;;;6140858;28;84037;-73
2022/03/04 01:23:07;;;;;;;15.95;10.13;;;23.00;32.70;;;;;;6129431;28;82997;-73
2022/03/04 01:26:07;;;;;;;13.68;9.48;;;23.00;32.70;;;;;;6126717;28;82965;-72
2022/03/04 01:29:08;;;;;;;13.13;8.77;;;23.00;32.80;;;;;;6134391;28;86668;-73
2022/03/04 01:32:08;;;;;;;13.38;9.73;;;23.00;32.90;;;;;;6116168;28;81679;-73
2022/03/04 01:35:09;;;;;;;15.63;9.75;;;23.00;32.80;;;;;;6133095;28;80580;-72
2022/03/04 01:38:10;;;;;;;14.68;9.23;;;23.00;32.80;;;;;;6132991;28;82761;-72
2022/03/04 01:41:10;;;;;;;14.20;9.45;;;23.00;32.70;;;;;;6134957;28;80306;-71
2022/03/04 01:44:11;;;;;;;14.68;9.85;;;23.00;32.70;;;;;;6148353;28;80686;-72
2022/03/04 01:47:11;;;;;;;12.40;8.68;;;23.00;32.70;;;;;;6134772;28;80385;-72
2022/03/04 01:50:12;;;;;;;14.27;9.95;;;23.00;32.80;;;;;;6121376;28;80609;-73
2022/03/04 01:53:12;;;;;;;12.32;8.05;;;23.00;32.70;;;;;;6136214;28;80637;-73
2022/03/04 01:56:13;;;;;;;12.40;8.77;;;23.00;32.70;;;;;;6137972;28;80387;-73
2022/03/04 01:59:13;;;;;;;14.82;9.00;;;23.00;32.70;;;;;;6137289;28;80552;-73
2022/03/04 02:02:14;;;;;;;13.13;8.60;;;23.00;32.70;;;;;;6140499;28;80958;-73
2022/03/04 02:05:14;;;;;;;13.75;9.32;;;23.00;32.80;;;;;;6142563;28;80861;-74
2022/03/04 02:08:15;;;;;;;14.88;8.68;;;22.90;32.60;;;;;;6133853;28;80775;-73
2022/03/04 02:11:15;;;;;;;13.13;8.90;;;23.00;32.60;;;;;;6136481;28;80898;-74
2022/03/04 02:14:16;;;;;;;13.02;8.55;;;22.90;32.50;;;;;;6135669;28;82524;-74
2022/03/04 02:17:16;;;;;;;14.18;8.57;;;22.90;32.50;;;;;;6135429;28;80657;-72
2022/03/04 02:20:17;;;;;;;14.82;9.13;;;22.90;32.60;;;;;;6147231;28;80547;-72
2022/03/04 02:23:17;;;;;;;11.00;8.35;;;22.90;32.50;;;;;;6133324;28;80383;-72
2022/03/04 02:26:18;;;;;;;13.30;8.48;;;22.90;32.50;;;;;;6148191;28;86663;-71
2022/03/04 02:29:18;;;;;;;13.93;8.57;;;22.90;32.60;;;;;;6136230;28;80219;-72
2022/03/04 02:32:21;;;;;;;10.98;7.97;;;22.90;32.50;;;;;;6136994;28;81384;-74
2022/03/04 02:35:21;;;;;;;12.20;8.23;;;22.90;32.50;;;;;;6150091;28;81696;-74
2022/03/04 02:38:22;;;;;;;9.90;7.03;;;22.90;32.50;;;;;;6137566;28;80578;-73
2022/03/04 02:41:22;;;;;;;10.90;7.85;;;22.90;32.40;;;;;;6138591;28;81415;-73
2022/03/04 02:44:23;;;;;;;11.07;7.80;;;22.90;32.50;;;;;;6135174;28;80315;-73
2022/03/04 02:47:23;;;;;;;10.38;7.28;;;22.90;32.60;;;;;;6134731;28;80462;-73
2022/03/04 02:50:24;;;;;;;12.88;8.25;;;22.90;32.80;;;;;;6141092;28;81831;-73
2022/03/04 02:53:24;;;;;;;9.07;6.43;;;22.90;32.80;;;;;;6139105;28;80580;-73
2022/03/04 02:56:25;;;;;;;9.75;6.97;;;22.90;32.80;;;;;;6149026;28;80393;-72
2022/03/04 02:59:25;;;;;;;10.85;7.18;;;22.90;32.90;;;;;;6136136;28;80622;-73
2022/03/04 03:02:26;;;;;;;11.07;7.00;;;22.90;33.00;;;;;;6134844;28;80654;-73
2022/03/04 03:05:26;;;;;;;9.98;6.28;;;22.80;32.60;;;;;;6133923;28;80647;-73
2022/03/04 03:08:28;;;;;;;9.40;6.82;;;22.80;32.70;;;;;;6127970;28;80594;-71
2022/03/04 03:11:28;;;;;;;8.95;6.25;;;22.80;32.90;;;;;;6134135;28;85031;-70
2022/03/04 03:14:29;;;;;;;9.98;6.78;;;22.90;33.10;;;;;;6143768;28;81615;-71
2022/03/04 03:17:29;;;;;;;13.15;6.25;;;22.90;33.00;;;;;;6135783;28;80142;-69
2022/03/04 03:20:30;;;;;;;10.38;6.78;;;22.90;33.80;;;;;;6134634;28;80447;-69
2022/03/04 03:23:30;;;;;;;9.40;6.45;;;22.90;33.50;;;;;;6135643;28;80233;-69
2022/03/04 03:26:31;;;;;;;8.75;6.30;;;22.90;33.20;;;;;;6147175;28;80466;-68
2022/03/04 03:29:31;;;;;;;8.75;6.63;;;22.90;33.40;;;;;;6138999;28;80964;-69
2022/03/04 03:32:32;;;;;;;9.35;6.93;;;22.90;33.30;;;;;;6134172;28;81482;-72
2022/03/04 03:35:32;;;;;;;9.10;6.45;;;22.90;33.40;;;;;;6135131;28;80314;-71
2022/03/04 03:38:33;;;;;;;12.85;7.68;;;22.90;33.50;;;;;;6136148;28;81628;-70
2022/03/04 03:41:34;;;;;;;9.52;7.18;;;22.80;33.40;;;;;;6132669;28;82016;-69
2022/03/04 03:44:34;;;;;;;9.90;6.90;;;22.80;33.30;;;;;;6134331;28;80880;-70
2022/03/04 03:47:35;;;;;;;10.48;6.68;;;22.80;33.20;;;;;;6130901;28;80707;-69
2022/03/04 03:50:38;;;;;;;10.52;6.50;;;22.80;33.20;;;;;;6137228;28;80875;-69
2022/03/04 03:53:38;;;;;;;9.35;6.45;;;22.80;33.30;;;;;;6117625;28;80755;-70
2022/03/04 03:56:39;;;;;;;9.45;6.88;;;22.80;33.30;;;;;;6136295;28;81798;-71
2022/03/04 03:59:39;;;;;;;11.00;6.65;;;22.80;33.30;;;;;;6133840;28;80254;-72
2022/03/04 04:02:40;;;;;;;8.23;6.55;;;22.80;33.40;;;;;;6140915;28;80462;-70
2022/03/04 04:05:40;;;;;;;8.13;6.05;;;22.80;33.30;;;;;;6150169;28;81477;-70
2022/03/04 04:08:41;;;;;;;10.65;6.43;;;22.80;33.40;;;;;;6139804;28;80771;-71
2022/03/04 04:11:41;;;;;;;8.95;6.30;;;22.80;33.40;;;;;;6134665;28;81343;-70
2022/03/04 04:14:42;;;;;;;9.27;6.55;;;22.80;35.00;;;;;;6133802;28;80884;-69
2022/03/04 04:17:42;;;;;;;9.27;6.25;;;22.90;33.20;;;;;;6135814;28;80401;-69
2022/03/04 04:20:43;;;;;;;9.88;6.25;;;22.90;33.00;;;;;;6135669;28;80505;-69
2022/03/04 04:23:43;;;;;;;10.07;6.65;;;23.00;32.70;;;;;;6117894;28;80307;-68
2022/03/04 04:26:44;;;;;;;10.82;7.60;;;23.00;32.30;;;;;;6129908;28;80632;-69
2022/03/04 04:29:44;;;;;;;10.73;7.07;;;23.00;32.10;;;;;;6135165;28;80733;-69
2022/03/04 04:32:45;;;;;;;11.00;6.72;;;23.10;32.10;;;;;;6135705;28;81653;-69
2022/03/04 04:35:45;;;;;;;9.52;6.68;;;23.20;32.20;;;;;;6134603;28;80599;-69
2022/03/04 04:38:46;;;;;;;9.93;6.90;;;23.20;32.20;;;;;;6134750;28;80992;-68
2022/03/04 04:41:46;;;;;;;9.55;7.18;;;23.20;32.30;;;;;;6138816;28;81891;-68
2022/03/04 04:44:47;;;;;;;10.88;6.13;;;23.20;32.30;;;;;;6144959;28;80923;-69
2022/03/04 04:47:47;;;;;;;10.85;6.70;;;23.30;32.40;;;;;;6130278;28;81347;-68
2022/03/04 04:50:48;;;;;;;9.52;6.65;;;23.30;32.30;;;;;;6122611;28;82449;-69
2022/03/04 04:53:50;;;;;;;12.65;7.13;;;23.40;32.30;;;;;;6133554;28;80160;-70
2022/03/04 04:56:51;;;;;;;10.38;6.95;;;23.40;32.30;;;;;;6137526;28;80922;-71
2022/03/04 04:59:51;;;;;;;8.38;6.55;;;23.40;32.00;;;;;;6132897;28;80313;-70
2022/03/04 05:02:52;;;;;;;11.63;7.75;;;23.50;31.90;;;;;;6122136;28;81884;-71
2022/03/04 05:05:52;;;;;;;10.70;7.15;;;23.50;31.90;;;;;;6135149;28;80568;-71
2022/03/04 05:08:53;;;;;;;13.02;6.95;;;23.50;31.60;;;;;;6133677;28;80248;-70
2022/03/04 05:11:53;;;;;;;10.43;7.35;;;23.60;31.50;;;;;;6132313;28;80513;-71
2022/03/04 05:14:54;;;;;;;11.70;7.10;;;23.60;31.40;;;;;;6131775;28;80553;-71
2022/03/04 05:17:54;;;;;;;12.77;7.47;;;23.60;31.20;;;;;;6101822;28;81592;-69
2022/03/04 05:20:55;;;;;;;10.38;7.22;;;23.60;31.10;;;;;;6126724;28;81839;-69
2022/03/04 05:23:59;;;;;;;12.48;7.22;;;23.60;31.40;;;;;;6130405;28;80570;-67
2022/03/04 05:26:59;;;;;;;10.63;7.18;;;23.70;31.80;;;;;;6134831;28;81994;-66
2022/03/04 05:30:00;;;;;;;11.85;7.60;;;23.70;32.10;;;;;;6136081;28;80292;-66
2022/03/04 05:33:00;;;;;;;11.35;6.90;;;23.70;32.20;;;;;;6137377;28;82478;-67
2022/03/04 05:36:01;;;;;;;9.98;7.22;;;23.80;32.70;;;;;;6140717;28;80835;-68
2022/03/04 05:39:02;;;;;;;13.20;7.65;;;23.80;32.70;;;;;;6139620;28;81705;-68
2022/03/04 05:42:02;;;;;;;10.88;6.88;;;23.80;33.00;;;;;;6121094;28;82186;-70
2022/03/04 05:45:03;;;;;;;10.57;6.57;;;23.90;32.90;;;;;;6140607;28;88346;-69
2022/03/04 05:48:04;;;;;;;10.10;6.32;;;23.90;33.00;;;;;;6115701;28;80439;-68
2022/03/04 05:51:04;;;;;;;10.52;7.05;;;23.90;33.70;;;;;;6144713;28;80437;-68
2022/03/04 05:54:05;;;;;;;10.15;6.38;;;23.80;33.60;;;;;;6132373;28;81017;-63
2022/03/04 05:57:05;;;;;;;10.35;6.68;;;23.90;33.90;;;;;;6132635;28;80232;-66
2022/03/04 06:00:06;;;;;;;14.98;6.53;;;23.80;34.10;;;;;;6128232;28;80986;-69
2022/03/04 06:03:07;;;;;;;11.10;6.45;;;23.80;34.70;;;;;;6128818;28;80483;-60
2022/03/04 06:06:08;;;;;;;10.70;6.55;;;23.80;35.20;;;;;;6131631;28;80458;-68
2022/03/04 06:09:08;;;;;;;11.75;7.05;;;23.80;35.20;;;;;;6142968;28;81855;-69
2022/03/04 06:12:09;;;;;;;11.57;6.97;;;23.80;35.40;;;;;;6121076;28;83358;-67
2022/03/04 06:15:09;;;;;;;11.57;7.15;;;23.80;35.20;;;;;;6145115;28;80888;-64
2022/03/04 06:18:10;;;;;;;12.00;7.10;;;23.80;34.90;;;;;;6136437;28;80518;-70
2022/03/04 06:21:10;;;;;;;16.80;7.05;;;23.70;34.60;;;;;;6137143;28;81004;-69
2022/03/04 06:24:11;;;;;;;10.55;6.47;;;23.70;35.20;;;;;;6130240;28;80687;-65
2022/03/04 06:27:11;;;;;;;19.25;7.18;;;23.70;36.20;;;;;;6146017;28;80826;-64
2022/03/04 06:30:12;;;;;;;10.98;6.95;;;23.70;35.50;;;;;;6136009;28;80340;-68
2022/03/04 06:33:30;;;;;;;12.25;5.70;;;23.70;35.70;;;;;;6127739;28;81135;-67
2022/03/04 06:36:31;;;;;;;19.50;6.40;;;23.60;36.90;;;;;;6142611;28;80308;-65
2022/03/04 06:39:31;;;;;;;12.82;7.38;;;23.60;36.70;;;;;;6145326;28;80912;-65
2022/03/04 06:42:32;;;;;;;16.90;8.30;;;23.60;36.90;;;;;;6141402;28;80984;-67
2022/03/04 06:45:32;;;;;;;12.73;7.03;;;23.60;37.40;;;;;;6146771;28;80486;-67
2022/03/04 06:48:33;;;;;;;12.50;7.47;;;23.60;36.70;;;;;;6135400;28;81132;-66
2022/03/04 06:51:34;;;;;;;12.93;7.40;;;23.60;36.60;;;;;;6135940;28;80564;-67
2022/03/04 06:54:36;;;;;;;13.77;7.00;;;23.50;36.00;;;;;;6134997;28;80446;-66
2022/03/04 06:57:37;;;;;;;11.18;7.32;;;23.50;35.90;;;;;;6132716;28;82448;-66
2022/03/04 07:00:39;;;;;;;11.48;6.57;;;23.50;35.30;;;;;;6135685;28;80640;-66
2022/03/04 07:03:39;;;;;;;10.07;7.05;;;23.40;35.10;;;;;;6134992;28;80250;-66
2022/03/04 07:06:40;;;;;;;14.20;7.47;;;23.40;36.00;;;;;;6134580;28;83362;-67
2022/03/04 07:09:40;;;;;;;9.77;6.35;;;23.40;35.00;;;;;;6155691;28;80651;-66
2022/03/04 07:12:41;;;;;;;12.38;7.28;;;23.40;34.90;;;;;;6146058;28;80840;-66
2022/03/04 07:15:41;;;;;;;12.32;7.43;;;23.40;34.90;;;;;;6132321;28;82173;-65
2022/03/04 07:18:42;;;;;;;13.60;7.72;;;23.40;34.90;;;;;;6129273;28;80476;-65
2022/03/04 07:21:42;;;;;;;14.40;7.50;;;23.40;34.80;;;;;;6120686;28;80529;-67
2022/03/04 07:24:43;;;;;;;15.70;7.93;;;23.30;34.80;;;;;;6126002;28;81578;-67
2022/03/04 07:27:45;;;;;;;13.68;8.07;;;23.30;34.60;;;;;;6133248;28;81545;-69
2022/03/04 07:30:45;;;;;;;12.15;7.45;;;23.20;34.30;;;;;;6127054;28;80610;-67
2022/03/04 07:33:46;;;;;;;14.75;8.38;;;23.20;34.30;;;;;;6135184;28;82508;-67
2022/03/04 07:36:46;;;;;;;15.07;8.25;;;23.20;34.10;;;;;;6130129;28;80567;-66
2022/03/04 07:39:47;;;;;;;13.20;8.30;;;23.20;34.70;;;;;;6128948;28;80720;-68
2022/03/04 07:42:47;;;;;;;12.50;8.50;;;23.20;34.30;;;;;;6134489;28;80589;-68
2022/03/04 07:45:48;;;;;;;12.57;7.45;;;23.10;34.20;;;;;;6135128;28;81946;-68
2022/03/04 07:48:48;;;;;;;13.23;8.35;;;23.10;34.20;;;;;;6123495;28;80763;-66
2022/03/04 07:51:49;;;;;;;14.05;9.00;;;23.10;34.20;;;;;;6137358;28;82066;-67
2022/03/04 07:54:49;;;;;;;14.98;9.35;;;23.10;34.10;;;;;;6123513;28;80873;-66
2022/03/04 07:57:50;;;;;;;15.25;8.57;;;23.10;34.10;;;;;;6134613;28;81389;-67
2022/03/04 08:00:50;;;;;;;15.05;9.10;;;23.10;34.00;;;;;;6133507;28;80644;-66
2022/03/04 08:03:51;;;;;;;16.17;9.25;;;23.10;34.10;;;;;;6126987;28;80533;-66
2022/03/04 08:06:51;;;;;;;17.10;9.10;;;23.10;34.10;;;;;;6128718;28;81696;-68
2022/03/04 08:09:52;;;;;;;15.93;9.55;;;23.10;34.10;;;;;;6135770;28;80782;-67
2022/03/04 08:12:54;;;;;;;14.60;9.07;;;23.10;34.30;;;;;;6143877;28;81399;-68
2022/03/04 08:15:54;;;;;;;16.83;9.05;;;23.00;34.50;;;;;;6134797;28;81874;-67
2022/03/04 08:18:55;;;;;;;14.38;8.73;;;23.00;34.60;;;;;;6138509;28;80429;-67
2022/03/04 08:21:55;;;;;;;17.52;9.43;;;23.00;34.80;;;;;;6138912;28;80955;-67
2022/03/04 08:24:56;;;;;;;16.73;8.85;;;23.00;35.00;;;;;;6137131;28;80528;-69
2022/03/04 08:27:57;;;;;;;16.33;9.02;;;23.00;35.20;;;;;;6132880;28;80605;-67
2022/03/04 08:30:57;;;;;;;14.38;8.57;;;23.00;35.30;;;;;;6132624;28;80982;-67
2022/03/04 08:33:58;;;;;;;14.93;8.27;;;23.00;35.30;;;;;;6132442;28;81522;-66
2022/03/04 08:36:58;;;;;;;11.52;7.43;;;23.10;35.50;;;;;;6138439;28;80796;-66
2022/03/04 08:39:59;;;;;;;12.77;7.85;;;23.10;35.80;;;;;;6150166;28;81362;-67
2022/03/04 08:42:59;;;;;;;12.80;7.63;;;23.10;35.40;;;;;;6148008;28;83604;-67
2022/03/04 08:46:00;;;;;;;11.70;7.90;;;23.00;35.10;;;;;;6134113;28;80463;-67
2022/03/04 08:49:00;;;;;;;18.38;8.57;;;23.10;35.10;;;;;;6131028;28;80955;-68
2022/03/04 08:52:01;;;;;;;17.50;8.75;;;23.20;34.90;;;;;;6128352;28;81763;-68
2022/03/04 08:55:01;;;;;;;14.88;9.15;;;23.20;34.50;;;;;;6129835;28;80819;-68
2022/03/04 08:58:02;;;;;;;13.30;8.77;;;23.20;34.10;;;;;;6119610;28;80585;-68
2022/03/04 09:01:02;;;;;;;13.05;9.23;;;23.30;33.40;;;;;;6114847;28;80885;-68
2022/03/04 09:04:03;;;;;;;15.07;8.40;;;23.40;33.60;;;;;;6129068;28;80274;-68
2022/03/04 09:07:06;;;;;;;15.50;9.85;;;23.40;33.40;;;;;;6129701;28;80962;-67
2022/03/04 09:10:07;;;;;;;16.92;10.32;;;23.40;33.20;;;;;;6130932;28;81259;-69
2022/03/04 09:13:07;;;;;;;14.93;9.43;;;23.40;33.20;;;;;;6128669;28;83577;-62
2022/03/04 09:16:08;;;;;;;17.08;10.73;;;23.50;33.20;;;;;;6122921;28;83103;-62
2022/03/04 09:19:08;;;;;;;13.23;9.27;;;23.50;32.90;;;;;;6122154;28;82951;-62
2022/03/04 09:22:10;;;;;;;16.27;9.45;;;23.50;32.80;;;;;;6141696;28;83456;-61
2022/03/04 09:25:11;;;;;;;13.63;8.77;;;23.60;32.60;;;;;;6130755;28;81076;-70
2022/03/04 09:28:13;;;;;;;14.40;9.20;;;23.60;32.50;;;;;;6135071;28;80517;-72
2022/03/04 09:31:13;;;;;;;14.75;8.57;;;23.60;32.50;;;;;;6132955;28;80630;-70
2022/03/04 09:34:14;;;;;;;13.63;8.48;;;23.60;32.50;;;;;;6132208;28;81427;-72
2022/03/04 09:37:15;;;;;;;15.07;9.18;;;23.60;32.50;;;;;;6124863;28;80796;-72
2022/03/04 09:40:15;;;;;;;16.15;8.68;;;23.60;32.40;;;;;;6122168;28;80761;-72
2022/03/04 09:43:19;;;;;;;14.32;8.60;;;23.70;32.40;;;;;;6121488;28;80648;-63
2022/03/04 09:46:20;;;;;;;16.83;8.95;;;23.70;32.40;;;;;;6133359;28;81014;-69
2022/03/04 09:49:21;;;;;;;14.18;8.40;;;23.70;32.30;;;;;;6132202;28;81571;-68
2022/03/04 09:52:21;;;;;;;17.00;9.40;;;23.70;32.20;;;;;;6127447;28;80599;-69
2022/03/04 09:55:22;;;;;;;13.00;8.20;;;23.60;32.20;;;;;;6130145;28;80825;-72
2022/03/04 09:58:23;;;;;;;15.68;8.38;;;23.60;32.30;;;;;;6132875;28;80714;-72
2022/03/04 10:01:24;;;;;;;13.43;8.52;;;23.60;32.30;;;;;;6132719;28;80419;-74
2022/03/04 10:04:24;;;;;;;12.18;6.95;;;23.60;32.30;;;;;;6132572;28;82973;-73
2022/03/04 10:07:25;;;;;;;13.55;9.00;;;23.60;32.30;;;;;;6137583;28;80191;-73
2022/03/04 10:10:25;;;;;;;12.60;7.65;;;23.60;32.30;;;;;;6133418;28;81172;-73
2022/03/04 10:13:26;;;;;;;12.02;7.13;;;23.60;32.40;;;;;;6137641;28;80470;-72
2022/03/04 10:16:26;;;;;;;10.35;6.43;;;23.50;32.40;;;;;;6136476;28;80593;-70
2022/03/04 10:19:28;;;;;;;13.13;6.45;;;23.60;32.60;;;;;;6134356;28;81287;-69
2022/03/04 10:22:28;;;;;;;9.55;6.15;;;23.60;33.20;;;;;;6131241;28;84351;-69
2022/03/04 10:25:29;;;;;;;12.27;6.25;;;23.50;32.50;;;;;;6130787;28;80623;-69
2022/03/04 10:28:29;;;;;;;9.18;5.85;;;23.50;32.90;;;;;;6129180;28;81006;-68
2022/03/04 10:31:30;;;;;;;9.85;5.60;;;23.50;33.00;;;;;;6131075;28;80428;-68
2022/03/04 10:34:31;;;;;;;9.43;6.70;;;23.50;33.10;;;;;;6135114;28;81512;-68
2022/03/04 10:37:31;;;;;;;11.77;6.13;;;23.50;33.20;;;;;;6126083;28;80967;-68
2022/03/04 10:40:32;;;;;;;10.90;6.63;;;23.50;32.90;;;;;;6129922;28;81453;-69
2022/03/04 10:43:35;;;;;;;9.95;6.28;;;23.50;32.70;;;;;;6127094;28;80541;-69
2022/03/04 10:46:36;;;;;;;11.90;6.82;;;23.50;32.60;;;;;;6132059;28;81967;-68
2022/03/04 10:49:36;;;;;;;8.30;5.35;;;23.50;32.50;;;;;;6126149;28;81635;-69
2022/03/04 10:52:37;;;;;;;9.77;6.20;;;23.40;32.40;;;;;;6128887;28;81005;-68
2022/03/04 10:55:39;;;;;;;9.45;5.82;;;23.50;32.50;;;;;;6143164;28;81663;-71
2022/03/04 10:58:40;;;;;;;10.82;6.22;;;23.40;32.60;;;;;;6141585;28;80701;-70
2022/03/04 11:01:40;;;;;;;10.00;5.97;;;23.40;33.20;;;;;;6138958;28;81351;-71
2022/03/04 11:04:41;;;;;;;10.20;5.28;;;23.40;33.00;;;;;;6129406;28;80524;-68
2022/03/04 11:07:42;;;;;;;10.95;5.72;;;23.40;33.40;;;;;;6134660;28;81172;-68
2022/03/04 11:10:42;;;;;;;11.18;6.03;;;23.40;32.90;;;;;;6124180;28;80627;-68
2022/03/04 11:13:43;;;;;;;8.88;5.68;;;23.40;33.20;;;;;;6131099;28;81664;-68
2022/03/04 11:16:44;;;;;;;11.30;6.57;;;23.40;32.90;;;;;;6130576;28;80624;-68
2022/03/04 11:19:44;;;;;;;14.48;7.10;;;23.40;32.70;;;;;;6133559;28;80900;-69
2022/03/04 11:22:45;;;;;;;12.10;6.00;;;23.40;32.80;;;;;;6130924;28;80890;-72
2022/03/04 11:25:45;;;;;;;8.90;5.95;;;23.40;33.40;;;;;;6131750;28;80298;-71
2022/03/04 11:28:49;;;;;;;9.65;5.82;;;23.40;33.10;;;;;;6135964;28;81099;-71
2022/03/04 11:31:49;;;;;;;10.98;6.00;;;23.40;33.10;;;;;;6131385;28;80330;-70
2022/03/04 11:34:50;;;;;;;10.40;6.68;;;23.40;33.10;;;;;;6133756;28;80288;-70
2022/03/04 11:37:50;;;;;;;10.75;6.82;;;23.40;32.90;;;;;;6125601;28;81737;-68
2022/03/04 11:40:51;;;;;;;12.02;5.63;;;23.40;32.80;;;;;;6126466;28;80992;-68
2022/03/04 11:43:52;;;;;;;10.25;6.35;;;23.40;32.80;;;;;;6130692;28;80128;-70
2022/03/04 11:46:52;;;;;;;11.30;6.35;;;23.40;32.80;;;;;;6140356;28;81533;-68
2022/03/04 11:49:53;;;;;;;11.30;5.97;;;23.30;32.70;;;;;;6130709;28;80668;-68
2022/03/04 11:52:54;;;;;;;13.15;6.70;;;23.30;32.60;;;;;;6133025;28;81217;-68
2022/03/04 11:55:54;;;;;;;9.43;5.80;;;23.30;32.60;;;;;;6134846;28;80604;-69
2022/03/04 11:58:55;;;;;;;10.50;7.13;;;23.30;32.50;;;;;;6134645;28;80272;-69
2022/03/04 12:01:55;;;;;;;11.20;6.35;;;23.30;32.70;;;;;;6133606;28;80635;-69
2022/03/04 12:04:56;;;;;;;13.60;6.50;;;23.30;32.50;;;;;;6133046;28;80265;-70
2022/03/04 12:07:56;;;;;;;10.13;6.13;;;23.30;32.60;;;;;;6122500;28;80476;-70
2022/03/04 12:10:57;;;;;;;9.48;5.55;;;23.30;32.50;;;;;;6137008;28;82022;-69
2022/03/04 12:13:57;;;;;;;10.93;6.28;;;23.30;32.60;;;;;;6140053;28;80527;-68
2022/03/04 12:16:58;;;;;;;9.73;5.78;;;23.30;32.60;;;;;;6138010;28;83376;-69
2022/03/04 12:19:59;;;;;;;11.50;5.85;;;23.20;32.60;;;;;;6141834;28;85910;-68
2022/03/04 12:22:59;;;;;;;8.25;5.70;;;23.20;32.70;;;;;;6128192;28;80970;-69
2022/03/04 12:26:00;;;;;;;8.95;5.55;;;23.20;32.60;;;;;;6131999;28;80953;-70
2022/03/04 12:29:01;;;;;;;10.00;5.95;;;23.20;32.70;;;;;;6134061;28;80419;-70
2022/03/04 12:32:01;;;;;;;10.18;6.10;;;23.20;32.80;;;;;;6131296;28;80490;-71
2022/03/04 12:35:02;;;;;;;11.50;5.95;;;23.20;32.90;;;;;;6120384;28;81334;-70
2022/03/04 12:38:02;;;;;;;9.52;5.80;;;23.20;32.90;;;;;;6132616;28;80552;-70
2022/03/04 12:41:03;;;;;;;9.45;5.25;;;23.20;32.90;;;;;;6127800;28;80407;-69
2022/03/04 12:44:03;;;;;;;10.95;6.47;;;23.20;33.00;;;;;;6130305;28;87581;-70
2022/03/04 12:47:04;;;;;;;9.32;6.22;;;23.20;33.20;;;;;;6131739;28;82119;-69
2022/03/04 12:50:05;;;;;;;9.27;5.97;;;23.20;33.10;;;;;;6132579;28;80432;-69
2022/03/04 12:53:05;;;;;;;11.75;6.50;;;23.20;33.20;;;;;;6128581;28;80602;-68
2022/03/04 12:56:06;;;;;;;9.45;5.85;;;23.10;33.20;;;;;;6135930;28;80888;-69
2022/03/04 12:59:09;;;;;;;10.90;5.97;;;23.20;33.20;;;;;;6123505;28;80617;-70
2022/03/04 13:02:11;;;;;;;11.00;5.65;;;23.20;33.30;;;;;;6126405;28;81472;-71
2022/03/04 13:05:12;;;;;;;8.32;5.85;;;23.10;33.90;;;;;;6134391;28;80398;-73
2022/03/04 13:08:13;;;;;;;11.02;6.50;;;23.10;33.90;;;;;;6128764;28;83454;-71
2022/03/04 13:11:13;;;;;;;10.13;6.50;;;23.10;33.60;;;;;;6133470;28;86243;-70
2022/03/04 13:14:14;;;;;;;9.65;5.82;;;23.10;33.10;;;;;;6131877;28;80868;-70
2022/03/04 13:17:15;;;;;;;14.93;7.00;;;23.10;32.80;;;;;;6127371;28;80124;-71
2022/03/04 13:20:15;;;;;;;10.88;5.88;;;23.10;32.70;;;;;;6130612;28;81304;-71
2022/03/04 13:23:16;;;;;;;19.65;8.70;;;23.20;33.00;;;;;;6131342;28;82138;-72
2022/03/04 13:26:16;;;;;;;13.27;6.63;;;23.20;33.30;;;;;;6130173;28;81230;-69
2022/03/04 13:29:17;;;;;;;14.23;6.43;;;23.30;32.80;;;;;;6119609;28;81118;-70
2022/03/04 13:32:17;;;;;;;12.65;6.68;;;23.40;32.80;;;;;;6134121;28;80862;-71
2022/03/04 13:35:18;;;;;;;12.63;6.57;;;23.40;32.90;;;;;;6126979;28;81509;-70
2022/03/04 13:38:18;;;;;;;10.32;6.70;;;23.40;32.90;;;;;;6127000;28;80648;-68
2022/03/04 13:41:19;;;;;;;12.13;6.40;;;23.50;33.10;;;;;;6122407;28;80511;-68
2022/03/04 13:44:19;;;;;;;14.05;6.65;;;23.50;33.30;;;;;;6132926;28;80725;-69
2022/03/04 13:47:20;;;;;;;10.75;6.88;;;23.60;33.30;;;;;;6131516;28;82691;-68
2022/03/04 13:50:20;;;;;;;10.88;6.78;;;23.60;33.40;;;;;;6131394;28;80601;-70
2022/03/04 13:53:22;;;;;;;13.57;6.38;;;23.60;33.70;;;;;;6124743;28;80910;-68
2022/03/04 13:56:24;;;;;;;11.38;6.57;;;23.70;34.00;;;;;;6129510;28;81358;-69
2022/03/04 13:59:24;;;;;;;12.65;6.40;;;23.70;34.00;;;;;;6121942;28;80419;-70
2022/03/04 14:02:26;;;;;;;11.82;6.20;;;23.70;34.00;;;;;;6120724;28;81157;-68
2022/03/04 14:05:26;;;;;;;12.70;6.95;;;23.70;34.00;;;;;;6128490;28;80569;-70
2022/03/04 14:08:27;;;;;;;14.15;7.05;;;23.80;34.10;;;;;;6124883;28;82122;-69
2022/03/04 14:11:28;;;;;;;14.05;6.85;;;23.80;34.10;;;;;;6126510;28;80350;-69
2022/03/04 14:14:28;;;;;;;10.48;6.60;;;23.80;34.10;;;;;;6128002;28;81082;-69
2022/03/04 14:17:29;;;;;;;8.88;5.93;;;23.80;34.10;;;;;;6119845;28;80833;-71
2022/03/04 14:20:29;;;;;;;11.10;5.75;;;23.80;34.10;;;;;;6130086;28;80909;-68
2022/03/04 14:23:30;;;;;;;12.73;6.75;;;23.80;33.90;;;;;;6132179;28;80698;-70
2022/03/04 14:26:30;;;;;;;12.73;6.68;;;23.80;33.80;;;;;;6131588;28;80853;-70
2022/03/04 14:29:31;;;;;;;10.45;6.13;;;23.70;33.50;;;;;;6132010;28;80401;-71
2022/03/04 14:32:31;;;;;;;12.63;6.55;;;23.70;33.40;;;;;;6129741;28;80588;-69
2022/03/04 14:35:32;;;;;;;11.38;6.68;;;23.50;34.80;;;;;;6128188;28;80238;-69
2022/03/04 14:38:34;;;;;;;13.30;7.07;;;23.30;35.60;;;;;;6133085;28;82117;-70
2022/03/04 14:41:35;;;;;;;12.73;7.18;;;23.20;36.50;;;;;;6129244;28;81731;-69
2022/03/04 14:44:36;;;;;;;14.63;7.80;;;23.10;37.00;;;;;;6125929;28;80943;-70
2022/03/04 14:47:37;;;;;;;11.27;6.82;;;23.00;37.30;;;;;;6139512;28;80670;-69
2022/03/04 14:50:39;;;;;;;13.70;6.30;;;22.90;37.60;;;;;;6135742;28;81342;-69
2022/03/04 14:53:40;;;;;;;13.73;7.13;;;22.90;38.10;;;;;;6134856;28;80618;-67
2022/03/04 14:56:41;;;;;;;15.55;7.78;;;22.90;38.30;;;;;;6127596;28;80222;-61
2022/03/04 14:59:41;;;;;;;9.77;6.28;;;22.80;38.60;;;;;;6153217;28;80298;-66
2022/03/04 15:02:42;;;;;;;13.30;7.40;;;22.70;39.00;;;;;;6145210;28;80592;-69
2022/03/04 15:05:43;;;;;;;15.45;6.95;;;22.70;40.00;;;;;;6122187;28;80364;-68
2022/03/04 15:08:43;;;;;;;12.15;6.82;;;22.70;40.40;;;;;;6129607;28;81597;-68
2022/03/04 15:11:44;;;;;;;13.25;6.47;;;22.70;40.30;;;;;;6131096;28;80384;-68
2022/03/04 15:14:45;;;;;;;11.73;6.50;;;22.80;40.30;;;;;;6127959;28;80318;-70
2022/03/04 15:17:45;;;;;;;11.73;7.43;;;22.70;40.70;;;;;;6133477;28;81202;-68
2022/03/04 15:20:46;;;;;;;83.43;40.13;;;22.70;41.10;;;;;;6135184;28;80349;-68
2022/03/04 15:23:46;;;;;;;187.82;88.05;;;22.70;41.10;;;;;;6137433;28;83242;-68
2022/03/04 15:26:47;;;;;;;227.98;104.82;;;22.70;41.30;;;;;;6119519;28;84300;-69
2022/03/04 15:29:48;;;;;;;189.90;84.47;;;22.70;41.30;;;;;;6127071;28;85655;-67